Time;durP1;ratioP1;P1;durP2;ratioP2;P2;SDS_P1;SDS_P2;PMS_P1;PMS_P2;Temp;Humidity;BMP_temperature;BMP_pressure;BME280_temperature;BME280_humidity;BME280_pressure;Samples;Min_cycle;Max_cycle;Signal;HPM_P1;HPM_P2
2024/02/26 00:01:58;;;;;;;;;;;;;;;;;;;;;
2024/02/26 00:10:34;;;;;;;58.80;32.20;;;;;;;1.71;84.50;99255.70;125609;1303;638656;-64
2024/02/26 00:14:34;;;;;;;61.70;28.80;;;;;;;1.70;84.63;99249.93;127315;1305;128865;-65
2024/02/26 00:18:37;;;;;;;56.40;30.60;;;;;;;1.65;84.33;99241.42;127145;1305;114949;-64
2024/02/26 00:22:43;;;;;;;55.70;30.10;;;;;;;1.61;84.29;99241.73;122279;1298;5414940;-64
2024/02/26 00:26:45;;;;;;;52.50;28.10;;;;;;;1.56;84.17;99236.61;125103;1311;114897;-64
2024/02/26 00:35:20;;;;;;;54.00;26.70;;;;;;;1.49;84.13;99235.40;125566;1307;638627;-64
2024/02/26 00:39:20;;;;;;;52.20;24.60;;;;;;;1.44;84.17;99237.48;127739;1303;128613;-63
2024/02/26 00:43:22;;;;;;;44.70;25.40;;;;;;;1.42;84.65;99235.61;127610;1285;114865;-64
2024/02/26 00:47:17;;;;;;;;;;;;;;;;;;;;;
2024/02/26 00:51:09;;;;;;;;;;;;;;;;;;;;;
2024/02/26 00:55:10;;;;;;;46.80;19.80;;;;;;;1.38;84.64;99237.31;125714;1302;115041;-64
2024/02/26 01:03:39;;;;;;;48.00;25.20;;;;;;;1.46;85.70;99230.92;126093;1297;638575;-64
2024/02/26 01:07:39;;;;;;;;;;;;;;;;;;;;;
2024/02/26 01:16:01;;;;;;;;;;;;;;;;;;;;;
2024/02/26 01:20:01;;;;;;;;;;;;;;;;;;;;;
2024/02/26 01:24:05;;;;;;;41.60;23.10;;;;;;;1.51;86.18;99218.96;126246;1295;116392;-64
2024/02/26 01:28:06;;;;;;;29.40;14.30;;;;;;;1.52;86.62;99213.14;121684;1316;5407600;-64
2024/02/26 01:36:41;;;;;;;36.10;20.30;;;;;;;1.61;87.27;99207.42;125372;1302;639375;-65
2024/02/26 01:40:36;;;;;;;;;;;;;;;;;;;;;
2024/02/26 01:44:39;;;;;;;41.40;20.70;;;;;;;1.63;87.39;99202.44;127021;1287;114882;-64
2024/02/26 01:48:41;;;;;;;30.60;17.20;;;;;;;1.63;86.94;99203.83;121612;1318;5722000;-64
2024/02/26 01:52:30;;;;;;;;;;;;;;;;;;;;;
2024/02/26 01:56:22;;;;;;;;;;;;;;;;;;;;;
2024/02/26 02:08:35;;;;;;;33.90;19.80;;;;;;;1.53;86.19;99202.02;128330;1282;129110;-64
2024/02/26 02:12:39;;;;;;;38.00;19.80;;;;;;;1.47;86.30;99199.40;126554;1297;114923;-65
2024/02/26 02:16:30;;;;;;;35.10;19.80;;;;;;;1.43;86.37;99198.09;122002;1317;5421642;-66
2024/02/26 02:20:30;;;;;;;32.00;16.70;;;;;;;1.41;86.54;99192.37;125631;1323;114884;-66
2024/02/26 02:24:29;;;;;;;;;;;;;;;;;;;;;
2024/02/26 02:28:56;;;;;;;;;;;;;;;;;;;;;
2024/02/26 02:32:51;;;;;;;34.30;18.30;;;;;;;1.41;86.55;99193.59;126750;1291;128872;-65
2024/02/26 02:36:53;;;;;;;;;;;;;;;;;;;;;
2024/02/26 02:40:55;;;;;;;28.70;14.90;;;;;;;1.36;87.08;99194.63;121776;1301;5408237;-64
2024/02/26 02:44:56;;;;;;;23.70;15.50;;;;;;;1.34;87.28;99192.39;125246;1308;114984;-64
2024/02/26 02:48:50;;;;;;;;;;;;;;;;;;;;;
2024/02/26 02:52:49;;;;;;;;;;;;;;;;;;;;;
2024/02/26 02:57:11;;;;;;;25.00;13.70;;;;;;;1.41;88.07;99196.42;126219;1299;642089;-64
2024/02/26 03:01:14;;;;;;;28.10;14.30;;;;;;;1.41;88.04;99197.48;128025;1294;129355;-64
2024/02/26 03:05:14;;;;;;;;;;;;;;;;;;;;;
2024/02/26 03:09:23;;;;;;;26.10;13.80;;;;;;;1.40;87.65;99194.16;121825;1305;5407753;-65
2024/02/26 03:13:24;;;;;;;20.20;12.90;;;;;;;1.37;87.81;99193.71;124726;1313;115206;-65
2024/02/26 03:21:28;;;;;;;;;;;;;;;;;;;;;
2024/02/26 03:25:31;;;;;;;22.60;13.50;;;;;;;1.32;87.90;99184.73;127542;1303;128628;-64
2024/02/26 03:29:39;;;;;;;22.00;11.40;;;;;;;1.28;87.31;99183.25;126323;1292;114918;-64
2024/02/26 03:37:38;;;;;;;;;;;;;;;;;;;;;
2024/02/26 03:41:20;;;;;;;;;;;;;;;1.15;87.21;99181.86;124352;1316;114979;-64
2024/02/26 03:49:49;;;;;;;21.60;13.50;;;;;;;1.08;86.93;99180.30;125906;1299;638514;-64
2024/02/26 03:53:51;;;;;;;21.00;12.50;;;;;;;1.01;87.10;99178.23;128042;1282;128991;-64
2024/02/26 03:57:53;;;;;;;25.00;12.70;;;;;;;0.98;87.28;99179.02;127541;1283;115034;-65
2024/02/26 04:01:54;;;;;;;24.40;12.90;;;;;;;0.95;87.61;99180.15;122157;1299;5700245;-65
2024/02/26 04:10:29;;;;;;;27.00;14.30;;;;;;;0.98;88.10;99178.66;125855;1299;638437;-64
2024/02/26 04:14:20;;;;;;;;;;;;;;;;;;;;;
2024/02/26 04:18:24;;;;;;;32.20;15.60;;;;;;;0.95;87.82;99180.50;127553;1283;114970;-64
2024/02/26 04:22:33;;;;;;;24.60;15.20;;;;;;;0.91;87.68;99183.95;122411;1292;5408653;-64
2024/02/26 04:30:33;;;;;;;24.80;12.40;;;;;;;0.84;87.52;99177.99;124871;1323;114816;-63
2024/02/26 04:34:41;;;;;;;;;;;;;;;;;;;;;
2024/02/26 04:38:56;;;;;;;27.00;15.80;;;;;;;0.77;87.12;99188.91;125677;1303;636181;-63
2024/02/26 04:42:58;;;;;;;24.00;14.40;;;;;;;0.71;87.30;99188.20;127825;1289;127894;-64
2024/02/26 04:46:53;;;;;;;;;;;;;;;;;;;;;
2024/02/26 04:50:55;;;;;;;25.50;14.50;;;;;;;0.63;87.19;99195.79;121904;1302;5468071;-65
2024/02/26 04:59:19;;;;;;;;;;;;;;;;;;;;;
2024/02/26 05:03:15;;;;;;;;;;;;;;;;;;;;;
2024/02/26 05:07:18;;;;;;;32.20;15.10;;;;;;;0.49;87.24;99203.01;126278;1292;115381;-65
2024/02/26 05:11:20;;;;;;;24.60;13.80;;;;;;;0.45;86.91;99199.60;121453;1319;5586614;-64
2024/02/26 05:15:18;;;;;;;;;;;;;;;;;;;;;
2024/02/26 05:19:12;;;;;;;23.50;13.40;;;;;;;0.38;87.08;99199.45;124128;1324;114935;-64
2024/02/26 05:23:01;;;;;;;;;;;;;;;;;;;;;
2024/02/26 05:31:37;;;;;;;25.30;14.90;;;;;;;0.33;87.45;99203.23;125787;1310;638508;-64
2024/02/26 05:35:40;;;;;;;26.00;15.70;;;;;;;0.30;87.16;99202.79;127564;1294;128874;-65
2024/02/26 05:39:43;;;;;;;26.20;15.00;;;;;;;0.28;87.49;99198.80;126618;1300;114961;-67
2024/02/26 05:43:33;;;;;;;28.30;15.40;;;;;;;0.26;87.32;99198.31;121896;1299;5542125;-64
2024/02/26 05:47:34;;;;;;;29.20;15.90;;;;;;;0.26;87.37;99200.77;125528;1319;114827;-66
2024/02/26 05:55:20;;;;;;;30.20;16.30;;;;;;;0.31;87.62;99209.09;124372;1307;114869;-64
2024/02/26 05:59:02;;;;;;;;;;;;;;;;;;;;;
2024/02/26 06:03:18;;;;;;;40.00;20.50;;;;;;;0.42;87.67;99213.02;125539;1307;636746;-63
2024/02/26 06:07:21;;;;;;;;;;;;;;;;;;;;;
2024/02/26 06:11:27;;;;;;;36.60;20.50;;;;;;;0.53;87.92;99219.41;128148;1276;114824;-64
2024/02/26 06:15:25;;;;;;;;;;;;;;;;;;;;;
2024/02/26 06:19:31;;;;;;;40.50;18.40;;;;;;;0.71;88.13;99225.62;125461;1303;114849;-63
2024/02/26 06:23:22;;;;;;;35.90;19.10;;;;;;;0.81;88.44;99228.52;124761;1309;114922;-64
2024/02/26 06:27:24;;;;;;;36.80;17.10;;;;;;;0.94;88.48;99225.70;123909;1334;115019;-63
2024/02/26 06:35:56;;;;;;;;;;;;;;;;;;;;;
2024/02/26 06:39:59;;;;;;;28.50;17.60;;;;;;;1.62;89.75;99226.23;127477;1286;126832;-64
2024/02/26 06:43:54;;;;;;;26.10;13.20;;;;;;;1.88;90.32;99228.06;126519;1300;115045;-64
2024/02/26 06:47:43;;;;;;;20.50;10.90;;;;;;;2.19;91.12;99225.33;122825;1290;5468041;-64
2024/02/26 06:51:47;;;;;;;23.30;13.00;;;;;;;2.52;91.67;99222.33;126700;1296;114937;-65
2024/02/26 06:55:13;;;;;;;;;;;;;;;;;;;;;
2024/02/26 06:59:30;;;;;;;21.90;12.60;;;;;;;3.17;92.52;99217.90;125932;1299;114946;-65
2024/02/26 07:03:19;;;;;;;;;;;;;;;;;;;;;
2024/02/26 07:07:13;;;;;;;;;;;;;;;;;;;;;
2024/02/26 07:15:42;;;;;;;;;;;;;;;;;;;;;
2024/02/26 07:19:13;;;;;;;25.50;13.70;;;;;;;4.82;92.34;99228.67;127140;1294;128790;-66
2024/02/26 07:23:16;;;;;;;22.10;12.30;;;;;;;5.08;91.74;99228.44;127391;1285;114930;-66
2024/02/26 07:27:42;;;;;;;21.50;12.40;;;;;;;5.37;91.63;99227.86;126642;1295;115239;-64
2024/02/26 07:31:18;;;;;;;22.10;11.30;;;;;;;5.68;91.41;99223.21;122414;1298;115079;-65
2024/02/26 07:39:54;;;;;;;24.90;14.20;;;;;;;6.28;90.66;99220.77;125981;1297;641080;-68
2024/02/26 07:43:56;;;;;;;12.80;7.80;;;;;;;6.61;90.48;99225.89;127697;1286;126859;-68
2024/02/26 07:47:58;;;;;;;20.30;13.50;;;;;;;6.93;89.81;99229.75;127765;1286;115273;-66
2024/02/26 08:04:38;;;;;;;19.40;12.00;;;;;;;8.30;89.15;99224.79;125671;1304;638692;-67
2024/02/26 08:08:31;;;;;;;;;;;;;;;;;;;;;
2024/02/26 08:16:33;;;;;;;14.30;9.30;;;;;;;9.86;87.28;99225.64;124052;1283;5440094;-65
2024/02/26 08:20:33;;;;;;;15.20;9.00;;;;;;;10.27;85.93;99223.72;126499;1295;114980;-67
2024/02/26 08:24:34;;;;;;;17.20;10.00;;;;;;;10.69;85.64;99221.81;125919;1312;114915;-67
2024/02/26 08:33:10;;;;;;;14.40;8.60;;;;;;;11.33;83.14;99214.80;125729;1304;638691;-66
2024/02/26 08:36:57;;;;;;;;;;;;;;;;;;;;;
2024/02/26 08:41:19;;;;;;;10.20;7.20;;;;;;;11.60;81.49;99218.61;127104;1282;114924;-67
2024/02/26 08:44:56;;;;;;;;;;;;;;;;;;;;;
2024/02/26 08:48:58;;;;;;;11.90;7.10;;;;;;;11.70;80.39;99211.62;125255;1312;114964;-67
2024/02/26 08:57:33;;;;;;;9.00;6.10;;;;;;;11.83;78.18;99204.13;125694;1302;641208;-67
2024/02/26 09:01:30;;;;;;;;;;;;;;;;;;;;;
2024/02/26 09:09:33;;;;;;;;;;;;;;;;;;;;;
2024/02/26 09:13:36;;;;;;;5.80;4.60;;;;;;;12.02;76.45;99207.39;125491;1306;114891;-66
2024/02/26 09:22:01;;;;;;;5.60;3.60;;;;;;;12.24;75.03;99204.95;126511;1298;637067;-66
2024/02/26 09:26:02;;;;;;;6.80;3.60;;;;;;;12.32;73.55;99196.48;127701;1282;128784;-66
2024/02/26 09:30:06;;;;;;;8.00;3.40;;;;;;;12.37;72.97;99196.58;127071;1293;114940;-66
2024/02/26 09:33:44;;;;;;;5.70;3.20;;;;;;;12.45;73.36;99195.27;122159;1299;5455685;-66
2024/02/26 09:37:43;;;;;;;;;;;;;;;;;;;;;
2024/02/26 09:42:12;;;;;;;6.50;4.00;;;;;;;12.68;71.83;99200.02;125298;1304;114944;-67
2024/02/26 09:50:22;;;;;;;;;;;;;;;;;;;;;
2024/02/26 09:54:47;;;;;;;6.30;3.20;;;;;;;12.78;70.43;99198.74;126884;1309;127808;-68
2024/02/26 09:58:31;;;;;;;4.30;2.70;;;;;;;12.82;69.52;99200.54;126841;1291;114846;-67
2024/02/26 10:06:34;;;;;;;3.80;2.70;;;;;;;13.00;68.80;99205.48;126415;1314;114914;-66
2024/02/26 10:10:35;;;;;;;;;;;;;;;;;;;;;
2024/02/26 10:14:28;;;;;;;;;;;;;;;;;;;;;
2024/02/26 10:18:28;;;;;;;;;;;;;;;;;;;;;
2024/02/26 10:26:56;;;;;;;3.20;2.20;;;;;;;13.48;66.68;99207.88;125805;1302;640143;-66
2024/02/26 10:30:58;;;;;;;4.40;2.20;;;;;;;13.56;65.75;99211.05;127207;1288;129014;-67
2024/02/26 10:35:03;;;;;;;4.40;2.60;;;;;;;13.59;64.98;99211.47;126460;1295;114983;-67
2024/02/26 10:38:55;;;;;;;;;;;;;;;;;;;;;
2024/02/26 10:47:24;;;;;;;5.00;3.40;;;;;;;13.68;64.19;99210.26;125865;1304;638548;-66
2024/02/26 10:51:18;;;;;;;;;;;;;;;;;;;;;
2024/02/26 10:55:21;;;;;;;4.80;2.50;;;;;;;13.54;63.46;99213.88;126608;1289;114875;-68
2024/02/26 10:59:22;;;;;;;4.90;3.10;;;;;;;13.46;63.12;99210.02;122054;1314;5414183;-66
2024/02/26 11:03:22;;;;;;;;;;;;;;;;;;;;;
2024/02/26 11:11:57;;;;;;;4.60;2.90;;;;;;;13.48;63.19;99193.55;125687;1303;638652;-67
2024/02/26 11:15:54;;;;;;;7.20;3.60;;;;;;;13.50;63.24;99183.66;127463;1286;128281;-68
2024/02/26 11:19:55;;;;;;;5.10;3.10;;;;;;;13.57;63.45;99182.98;127367;1289;115324;-68
2024/02/26 11:23:57;;;;;;;;;;;;;;;;;;;;;
2024/02/26 11:27:41;;;;;;;3.90;2.30;;;;;;;13.58;61.94;99179.85;124806;1312;114878;-66
2024/02/26 11:36:00;;;;;;;;;;;;;;;;;;;;;
2024/02/26 11:40:01;;;;;;;;;;;;;;;;;;;;;
2024/02/26 11:44:06;;;;;;;3.80;2.60;;;;;;;13.78;62.64;99159.70;126852;1289;114920;-68
2024/02/26 11:48:14;;;;;;;7.20;2.30;;;;;;;13.90;62.10;99162.14;122548;1295;5419657;-67
2024/02/26 11:52:09;;;;;;;2.70;1.70;;;;;;;13.98;61.54;99163.81;125214;1307;114990;-67
2024/02/26 11:56:06;;;;;;;;;;;;;;;;;;;;;
2024/02/26 12:00:36;;;;;;;;;;;;;;;;;;;;;
2024/02/26 12:04:39;;;;;;;2.60;1.80;;;;;;;14.03;60.69;99152.34;128963;1278;128008;-68
2024/02/26 12:08:35;;;;;;;3.10;1.70;;;;;;;14.02;60.39;99158.33;129341;1266;114739;-67
2024/02/26 12:12:39;;;;;;;3.70;1.50;;;;;;;14.09;60.36;99153.10;125079;1265;5441418;-67
2024/02/26 12:20:32;;;;;;;3.40;1.50;;;;;;;14.36;58.91;99151.90;129285;1271;114863;-68
2024/02/26 12:24:34;;;;;;;2.80;1.30;;;;;;;14.54;59.30;99149.89;128468;1277;114949;-67
2024/02/26 12:28:36;;;;;;;3.10;1.80;;;;;;;14.70;58.60;99149.41;128006;1283;128136;-68
2024/02/26 12:32:28;;;;;;;3.10;1.60;;;;;;;14.82;58.44;99152.98;126243;1297;114987;-68
2024/02/26 12:36:30;;;;;;;2.90;1.80;;;;;;;14.96;57.66;99147.42;125770;1318;114904;-67
2024/02/26 12:53:03;;;;;;;2.60;1.50;;;;;;;15.11;57.04;99148.10;127356;1289;114961;-67
2024/02/26 12:57:06;;;;;;;2.50;1.60;;;;;;;15.14;56.68;99151.48;123130;1287;5431903;-68
2024/02/26 13:01:01;;;;;;;2.70;1.50;;;;;;;15.08;56.42;99154.13;125960;1317;114891;-67
2024/02/26 13:09:01;;;;;;;;;;;;;;;;;;;;;
2024/02/26 13:13:35;;;;;;;2.70;1.40;;;;;;;14.94;56.69;99156.45;125694;1302;639741;-67
2024/02/26 13:17:28;;;;;;;;;;;;;;;;;;;;;
2024/02/26 13:21:33;;;;;;;3.90;2.10;;;;;;;14.93;55.51;99161.58;127929;1284;114892;-68
2024/02/26 13:25:35;;;;;;;2.40;1.60;;;;;;;14.89;55.75;99160.95;123014;1290;5383791;-67
2024/02/26 13:29:42;;;;;;;3.60;2.30;;;;;;;14.88;55.67;99164.48;126598;1311;114907;-67
2024/02/26 13:33:47;;;;;;;;;;;;;;;;;;;;;
2024/02/26 13:37:49;;;;;;;2.40;1.30;;;;;;;14.90;55.36;99166.23;125561;1304;114904;-67
2024/02/26 13:46:24;;;;;;;4.10;1.90;;;;;;;14.88;55.79;99165.13;126157;1295;639999;-67
2024/02/26 13:50:26;;;;;;;4.10;1.80;;;;;;;14.87;56.10;99163.11;127961;1280;129165;-67
2024/02/26 13:54:30;;;;;;;3.20;1.50;;;;;;;14.89;55.79;99164.77;126416;1296;114834;-68
2024/02/26 13:58:32;;;;;;;;;;;;;;;;;;;;;
2024/02/26 14:03:03;;;;;;;4.10;2.10;;;;;;;14.89;55.80;99168.02;125880;1305;639416;-67
2024/02/26 14:07:05;;;;;;;2.70;1.90;;;;;;;14.83;55.93;99168.17;128101;1283;127868;-67
2024/02/26 14:10:47;;;;;;;;;;;;;;;;;;;;;
2024/02/26 14:14:48;;;;;;;3.40;1.80;;;;;;;14.67;55.88;99168.91;121859;1315;5417513;-67
2024/02/26 14:18:48;;;;;;;3.00;1.70;;;;;;;14.59;55.82;99164.92;124416;1332;114979;-67
2024/02/26 14:27:24;;;;;;;3.60;1.90;;;;;;;14.42;55.73;99163.81;126119;1299;638467;-67
2024/02/26 14:31:11;;;;;;;;;;;;;;;;;;;;;
2024/02/26 14:39:16;;;;;;;5.00;2.20;;;;;;;14.06;55.88;99167.91;123187;1305;3231703;-67
2024/02/26 14:43:15;;;;;;;;;;;;;;;;;;;;;
2024/02/26 14:47:15;;;;;;;;;;;;;;;;;;;;;
2024/02/26 14:51:46;;;;;;;;;;;;;;;;;;;;;
2024/02/26 14:55:45;;;;;;;;;;;;;;;;;;;;;
2024/02/26 14:59:57;;;;;;;4.60;2.30;;;;;;;13.70;56.92;99172.25;126226;1296;114877;-67
2024/02/26 15:08:21;;;;;;;5.20;3.60;;;;;;;13.64;57.24;99167.71;125584;1302;638005;-67
2024/02/26 15:12:26;;;;;;;6.60;3.40;;;;;;;13.57;57.15;99174.67;128057;1284;127988;-67
2024/02/26 15:16:08;;;;;;;6.00;4.00;;;;;;;13.53;57.39;99174.48;126876;1292;114990;-67
2024/02/26 15:20:14;;;;;;;6.00;3.90;;;;;;;13.48;57.52;99175.73;123819;1292;5520248;-66
2024/02/26 15:24:16;;;;;;;5.80;3.30;;;;;;;13.45;57.63;99177.29;125509;1301;114791;-66
2024/02/26 15:32:43;;;;;;;7.40;4.20;;;;;;;13.39;57.95;99181.66;126172;1305;638631;-66
2024/02/26 15:36:37;;;;;;;;;;;;;;;;;;;;;
2024/02/26 15:40:30;;;;;;;9.00;4.80;;;;;;;13.30;58.17;99189.52;127591;1290;114848;-67
2024/02/26 15:44:25;;;;;;;6.60;3.50;;;;;;;13.25;58.35;99190.65;123745;1287;5429720;-67
2024/02/26 15:52:29;;;;;;;10.80;4.90;;;;;;;13.09;58.73;99199.72;125532;1324;115077;-67
2024/02/26 16:00:55;;;;;;;5.80;3.40;;;;;;;12.94;58.97;99207.31;125838;1296;638590;-67
2024/02/26 16:09:01;;;;;;;7.40;4.60;;;;;;;12.78;59.57;99211.23;126834;1309;114904;-67
2024/02/26 16:12:49;;;;;;;6.20;5.00;;;;;;;12.73;59.65;99215.39;121801;1301;5409042;-67
2024/02/26 16:17:11;;;;;;;9.10;5.90;;;;;;;12.68;59.90;99213.98;124944;1308;114944;-69
2024/02/26 16:25:26;;;;;;;8.40;5.70;;;;;;;12.57;60.72;99220.71;126313;1296;637621;-68
2024/02/26 16:29:22;;;;;;;7.70;5.40;;;;;;;12.47;61.20;99227.39;127084;1288;128987;-66
2024/02/26 16:33:23;;;;;;;10.70;5.60;;;;;;;12.39;61.39;99234.75;126102;1297;114887;-67
2024/02/26 16:37:21;;;;;;;;;;;;;;;;;;;;;
2024/02/26 16:41:55;;;;;;;11.80;8.00;;;;;;;12.22;61.85;99234.09;125650;1304;638595;-68
2024/02/26 16:45:57;;;;;;;10.30;6.90;;;;;;;12.09;61.99;99242.72;127198;1296;127942;-67
2024/02/26 16:49:59;;;;;;;7.30;4.70;;;;;;;11.96;61.96;99249.14;125855;1301;114877;-66
2024/02/26 16:54:00;;;;;;;8.30;4.60;;;;;;;11.88;62.17;99252.58;119914;1311;7447337;-67
2024/02/26 16:57:59;;;;;;;9.40;4.20;;;;;;;11.81;62.43;99255.23;123983;1319;114985;-67
2024/02/26 17:06:22;;;;;;;;;;;;;;;;;;;;;
2024/02/26 17:10:25;;;;;;;;;;;;;;;;;;;;;
2024/02/26 17:14:31;;;;;;;22.40;12.60;;;;;;;11.51;63.73;99273.25;126149;1298;115163;-67
2024/02/26 17:18:53;;;;;;;18.90;11.50;;;;;;;11.42;63.88;99277.27;122039;1308;5443620;-68
2024/02/26 17:22:35;;;;;;;17.40;9.50;;;;;;;11.31;64.17;99281.77;125087;1318;114987;-66
2024/02/26 17:26:11;;;;;;;18.20;9.80;;;;;;;11.21;64.19;99284.39;124491;1308;114891;-67
2024/02/26 17:30:13;;;;;;;15.90;9.00;;;;;;;11.14;64.66;99291.19;124599;1313;129609;-71
2024/02/26 17:38:38;;;;;;;;;;;;;;;;;;;;;
2024/02/26 17:42:42;;;;;;;16.60;10.10;;;;;;;10.91;65.43;99311.48;127976;1286;127623;-66
2024/02/26 17:51:08;;;;;;;;;;;;;;;;;;;;;
2024/02/26 17:55:09;;;;;;;;;;;;;;;;;;;;;
2024/02/26 17:59:19;;;;;;;22.10;9.80;;;;;;;10.63;65.99;99317.58;127039;1292;114858;-67
2024/02/26 18:03:10;;;;;;;28.30;12.70;;;;;;;10.55;66.20;99320.59;122106;1301;5467351;-67
2024/02/26 18:07:12;;;;;;;;;;;;;;;;;;;;;
2024/02/26 18:11:47;;;;;;;32.20;15.30;;;;;;;10.42;66.41;99333.96;125678;1299;637241;-66
2024/02/26 18:15:49;;;;;;;30.80;14.90;;;;;;;10.29;66.68;99340.09;128171;1281;127816;-66
2024/02/26 18:19:52;;;;;;;28.90;14.30;;;;;;;10.18;66.87;99342.00;127548;1287;115046;-66
2024/02/26 18:23:52;;;;;;;;;;;;;;;;;;;;;
2024/02/26 18:32:28;;;;;;;74.50;28.40;;;;;;;10.00;68.43;99347.98;125772;1303;640592;-66
2024/02/26 18:36:31;;;;;;;69.80;28.80;;;;;;;9.96;68.70;99345.17;126911;1292;127954;-67
2024/02/26 18:40:23;;;;;;;116.30;44.50;;;;;;;9.95;68.91;99351.34;125611;1316;114997;-66
2024/02/26 18:48:52;;;;;;;50.70;22.90;;;;;;;9.89;69.19;99358.98;125440;1303;638460;-68
2024/02/26 18:52:45;;;;;;;;;;;;;;;;;;;;;
2024/02/26 18:56:32;;;;;;;;;;;;;;;;;;;;;
2024/02/26 19:00:28;;;;;;;39.90;18.70;;;;;;;9.84;69.95;99366.98;122950;1284;5424080;-66
2024/02/26 19:04:28;;;;;;;;;;;;;;;;;;;;;
2024/02/26 19:08:46;;;;;;;42.10;21.40;;;;;;;9.81;70.52;99377.89;125265;1306;115240;-66
2024/02/26 19:12:46;;;;;;;;;;;;;;;;;;;;;
2024/02/26 19:16:46;;;;;;;47.10;24.20;;;;;;;9.76;70.30;99380.99;123515;1322;129997;-65
2024/02/26 19:29:25;;;;;;;54.00;30.30;;;;;;;9.68;70.72;99393.11;128098;1281;129322;-69
2024/02/26 19:33:21;;;;;;;61.70;31.10;;;;;;;9.64;70.71;99395.66;126791;1289;115009;-68
2024/02/26 19:37:27;;;;;;;76.60;44.50;;;;;;;9.62;70.99;99397.58;122902;1293;5431010;-69
2024/02/26 19:41:28;;;;;;;63.50;33.90;;;;;;;9.62;71.20;99404.71;126115;1295;114873;-70
2024/02/26 19:45:30;;;;;;;38.80;17.50;;;;;;;9.63;71.37;99404.45;125660;1305;114957;-68
2024/02/26 19:53:46;;;;;;;47.90;26.10;;;;;;;9.73;71.55;99406.30;125564;1304;639410;-69
2024/02/26 19:57:49;;;;;;;49.60;29.50;;;;;;;9.75;71.63;99409.23;128657;1279;127553;-71
2024/02/26 20:05:52;;;;;;;;;;;;;;;;;;;;;
2024/02/26 20:09:33;;;;;;;;;;;;;;;9.79;72.12;99410.28;124919;1313;115010;-68
2024/02/26 20:18:09;;;;;;;76.80;39.30;;;;;;;9.79;72.05;99412.96;125586;1308;639080;-68
2024/02/26 20:22:10;;;;;;;;;;;;;;;;;;;;;
2024/02/26 20:26:14;;;;;;;86.20;46.40;;;;;;;9.71;72.36;99411.77;126090;1306;115148;-69
2024/02/26 20:30:14;;;;;;;60.10;30.10;;;;;;;9.71;72.33;99416.96;121000;1303;6418472;-68
2024/02/26 20:34:13;;;;;;;;;;;;;;;;;;;;;
2024/02/26 20:38:14;;;;;;;;;;;;;;;;;;;;;
2024/02/26 20:42:47;;;;;;;71.80;33.20;;;;;;;9.71;72.94;99423.64;125399;1303;638413;-70
2024/02/26 20:46:54;;;;;;;66.50;31.50;;;;;;;9.69;73.05;99428.69;128385;1277;126628;-71
2024/02/26 20:50:52;;;;;;;73.40;36.50;;;;;;;9.66;73.16;99433.88;127303;1303;114855;-70
2024/02/26 20:54:47;;;;;;;72.60;34.10;;;;;;;9.61;73.30;99433.95;122588;1295;5413340;-69
2024/02/26 20:58:48;;;;;;;64.40;32.80;;;;;;;9.57;73.40;99444.52;125628;1305;115242;-68
2024/02/26 21:02:50;;;;;;;62.90;28.00;;;;;;;9.53;73.69;99453.52;123943;1319;115068;-68
2024/02/26 21:06:29;;;;;;;55.60;27.80;;;;;;;9.48;73.17;99459.48;123481;1322;115026;-70
2024/02/26 21:15:00;;;;;;;57.40;30.70;;;;;;;9.39;73.64;99466.45;126734;1292;640159;-68
2024/02/26 21:19:03;;;;;;;56.40;29.50;;;;;;;9.26;73.26;99465.77;128426;1291;127799;-69
2024/02/26 21:23:02;;;;;;;58.80;30.50;;;;;;;9.12;73.40;99469.08;127853;1284;114818;-69
2024/02/26 21:27:09;;;;;;;60.30;28.60;;;;;;;8.99;73.24;99479.73;123427;1289;5408421;-69
2024/02/26 21:30:59;;;;;;;;;;;;;;;;;;;;;
2024/02/26 21:43:36;;;;;;;;;;;;;;;;;;;;;
2024/02/26 21:47:40;;;;;;;56.70;30.10;;;;;;;8.21;73.74;99494.80;127191;1289;114833;-68
2024/02/26 21:51:41;;;;;;;54.30;25.90;;;;;;;8.06;73.77;99498.25;122468;1299;5437227;-68
2024/02/26 22:00:08;;;;;;;;;;;;;;;;;;;;;
2024/02/26 22:08:44;;;;;;;49.90;25.70;;;;;;;7.47;74.32;99519.01;125914;1301;639404;-69
2024/02/26 22:12:46;;;;;;;47.60;24.30;;;;;;;7.31;74.99;99523.86;127278;1300;130124;-69
2024/02/26 22:16:47;;;;;;;51.90;25.00;;;;;;;7.21;75.14;99524.90;126460;1292;114876;-68
2024/02/26 22:20:51;;;;;;;46.50;23.20;;;;;;;7.11;75.51;99532.77;121655;1307;5436772;-68
2024/02/26 22:24:37;;;;;;;;;;;;;;;;;;;;;
2024/02/26 22:29:11;;;;;;;51.00;24.50;;;;;;;7.04;76.73;99539.16;125711;1297;639988;-68
2024/02/26 22:33:13;;;;;;;48.00;24.40;;;;;;;6.99;76.76;99539.04;127379;1287;128798;-68
2024/02/26 22:37:16;;;;;;;44.20;24.10;;;;;;;6.96;76.75;99542.76;127034;1308;114948;-67
2024/02/26 22:41:17;;;;;;;45.00;23.10;;;;;;;6.93;76.95;99550.02;122534;1298;5511157;-68
2024/02/26 22:45:19;;;;;;;53.30;26.40;;;;;;;6.91;77.03;99553.46;125797;1304;115230;-69
2024/02/26 22:49:20;;;;;;;42.70;23.40;;;;;;;6.91;77.52;99556.48;125139;1308;114969;-67
2024/02/26 22:57:57;;;;;;;47.40;24.00;;;;;;;6.93;77.62;99554.60;125535;1305;638909;-68
2024/02/26 23:01:54;;;;;;;44.60;25.30;;;;;;;6.91;77.89;99557.89;127044;1293;128960;-68
2024/02/26 23:09:51;;;;;;;;;;;;;;;;;;;;;
2024/02/26 23:18:31;;;;;;;43.30;23.70;;;;;;;6.92;78.44;99573.63;125593;1301;638641;-68
2024/02/26 23:22:33;;;;;;;39.60;21.30;;;;;;;6.87;78.18;99571.20;127904;1280;127607;-68
2024/02/26 23:26:29;;;;;;;;;;;;;;;;;;;;;
2024/02/26 23:30:31;;;;;;;49.20;26.30;;;;;;;6.77;78.54;99581.78;121535;1305;5417502;-68
2024/02/26 23:43:05;;;;;;;40.70;22.20;;;;;;;6.53;78.66;99584.77;128171;1281;127776;-68
2024/02/26 23:47:11;;;;;;;44.60;24.50;;;;;;;6.46;78.70;99587.96;126320;1313;114873;-68
2024/02/26 23:55:13;;;;;;;49.20;24.50;;;;;;;6.27;78.58;99597.27;125169;1322;114861;-68
